sensor_id;sensor_type;location;lat;lon;timestamp;P1;durP1;ratioP1;P2;durP2;ratioP2
11439;SDS011;5776;51.814;4.510;2023-04-01T00:01:34;30.90;;;8.97;;
11439;SDS011;5776;51.814;4.510;2023-04-01T00:04:00;39.67;;;9.43;;
11439;SDS011;5776;51.814;4.510;2023-04-01T00:06:27;37.90;;;9.37;;
11439;SDS011;5776;51.814;4.510;2023-04-01T00:08:53;46.57;;;10.63;;
11439;SDS011;5776;51.814;4.510;2023-04-01T00:11:19;39.50;;;9.63;;
11439;SDS011;5776;51.814;4.510;2023-04-01T00:13:45;36.07;;;8.87;;
11439;SDS011;5776;51.814;4.510;2023-04-01T00:16:12;42.43;;;8.07;;
11439;SDS011;5776;51.814;4.510;2023-04-01T00:18:38;34.47;;;9.37;;
11439;SDS011;5776;51.814;4.510;2023-04-01T00:21:04;41.90;;;9.93;;
11439;SDS011;5776;51.814;4.510;2023-04-01T00:23:30;37.57;;;9.23;;
11439;SDS011;5776;51.814;4.510;2023-04-01T00:25:58;36.43;;;8.67;;
11439;SDS011;5776;51.814;4.510;2023-04-01T00:28:25;31.97;;;8.57;;
11439;SDS011;5776;51.814;4.510;2023-04-01T00:30:51;32.43;;;8.77;;
11439;SDS011;5776;51.814;4.510;2023-04-01T00:33:17;28.80;;;7.90;;
11439;SDS011;5776;51.814;4.510;2023-04-01T00:35:43;28.63;;;8.30;;
11439;SDS011;5776;51.814;4.510;2023-04-01T00:38:10;32.57;;;7.70;;
11439;SDS011;5776;51.814;4.510;2023-04-01T00:40:38;27.07;;;8.60;;
11439;SDS011;5776;51.814;4.510;2023-04-01T00:43:13;29.27;;;8.50;;
11439;SDS011;5776;51.814;4.510;2023-04-01T00:45:47;29.43;;;7.37;;
11439;SDS011;5776;51.814;4.510;2023-04-01T00:48:17;25.83;;;7.47;;
11439;SDS011;5776;51.814;4.510;2023-04-01T00:50:58;28.93;;;7.77;;
11439;SDS011;5776;51.814;4.510;2023-04-01T00:53:25;26.17;;;7.87;;
11439;SDS011;5776;51.814;4.510;2023-04-01T00:58:54;27.10;;;7.53;;
11439;SDS011;5776;51.814;4.510;2023-04-01T01:01:25;31.00;;;7.80;;
11439;SDS011;5776;51.814;4.510;2023-04-01T01:03:53;33.03;;;8.77;;
11439;SDS011;5776;51.814;4.510;2023-04-01T01:06:39;31.30;;;8.93;;
11439;SDS011;5776;51.814;4.510;2023-04-01T01:12:13;36.23;;;8.33;;
11439;SDS011;5776;51.814;4.510;2023-04-01T01:14:45;30.07;;;8.57;;
11439;SDS011;5776;51.814;4.510;2023-04-01T01:17:26;27.80;;;8.03;;
11439;SDS011;5776;51.814;4.510;2023-04-01T01:32:04;24.93;;;6.90;;
11439;SDS011;5776;51.814;4.510;2023-04-01T01:34:24;27.47;;;6.40;;
11439;SDS011;5776;51.814;4.510;2023-04-01T01:36:57;24.97;;;6.10;;
11439;SDS011;5776;51.814;4.510;2023-04-01T01:39:32;23.63;;;5.57;;
11439;SDS011;5776;51.814;4.510;2023-04-01T01:42:02;23.43;;;4.77;;
11439;SDS011;5776;51.814;4.510;2023-04-01T01:44:31;21.27;;;4.70;;
11439;SDS011;5776;51.814;4.510;2023-04-01T01:47:00;18.67;;;4.67;;
11439;SDS011;5776;51.814;4.510;2023-04-01T01:49:27;17.23;;;4.77;;
11439;SDS011;5776;51.814;4.510;2023-04-01T01:51:56;16.67;;;4.50;;
11439;SDS011;5776;51.814;4.510;2023-04-01T01:54:22;18.10;;;5.37;;
11439;SDS011;5776;51.814;4.510;2023-04-01T01:56:49;20.57;;;6.27;;
11439;SDS011;5776;51.814;4.510;2023-04-01T01:59:20;20.07;;;6.30;;
11439;SDS011;5776;51.814;4.510;2023-04-01T02:01:50;19.47;;;6.73;;
11439;SDS011;5776;51.814;4.510;2023-04-01T02:04:19;19.63;;;6.63;;
11439;SDS011;5776;51.814;4.510;2023-04-01T02:06:47;19.03;;;6.37;;
11439;SDS011;5776;51.814;4.510;2023-04-01T02:09:19;17.07;;;6.43;;
11439;SDS011;5776;51.814;4.510;2023-04-01T02:11:47;14.77;;;6.60;;
11439;SDS011;5776;51.814;4.510;2023-04-01T02:14:17;21.40;;;7.37;;
11439;SDS011;5776;51.814;4.510;2023-04-01T02:16:51;25.93;;;7.27;;
11439;SDS011;5776;51.814;4.510;2023-04-01T02:19:24;15.67;;;5.70;;
11439;SDS011;5776;51.814;4.510;2023-04-01T02:22:00;16.37;;;5.63;;
11439;SDS011;5776;51.814;4.510;2023-04-01T02:24:28;13.03;;;5.53;;
11439;SDS011;5776;51.814;4.510;2023-04-01T02:26:57;16.07;;;5.10;;
11439;SDS011;5776;51.814;4.510;2023-04-01T02:29:23;12.90;;;5.23;;
11439;SDS011;5776;51.814;4.510;2023-04-01T02:31:51;14.00;;;4.83;;
11439;SDS011;5776;51.814;4.510;2023-04-01T02:34:18;10.23;;;4.10;;
11439;SDS011;5776;51.814;4.510;2023-04-01T02:36:45;11.63;;;4.63;;
11439;SDS011;5776;51.814;4.510;2023-04-01T02:39:14;10.17;;;4.47;;
11439;SDS011;5776;51.814;4.510;2023-04-01T02:41:41;10.00;;;4.43;;
11439;SDS011;5776;51.814;4.510;2023-04-01T02:44:10;11.53;;;4.77;;
11439;SDS011;5776;51.814;4.510;2023-04-01T02:46:39;11.40;;;4.13;;
11439;SDS011;5776;51.814;4.510;2023-04-01T02:49:05;10.50;;;4.27;;
11439;SDS011;5776;51.814;4.510;2023-04-01T02:51:31;10.17;;;3.93;;
11439;SDS011;5776;51.814;4.510;2023-04-01T02:53:57;9.60;;;3.40;;
11439;SDS011;5776;51.814;4.510;2023-04-01T02:56:23;9.80;;;3.47;;
11439;SDS011;5776;51.814;4.510;2023-04-01T02:58:49;7.00;;;3.20;;
11439;SDS011;5776;51.814;4.510;2023-04-01T03:01:16;7.20;;;2.83;;
11439;SDS011;5776;51.814;4.510;2023-04-01T03:03:42;5.17;;;2.90;;
11439;SDS011;5776;51.814;4.510;2023-04-01T03:06:09;5.57;;;2.37;;
11439;SDS011;5776;51.814;4.510;2023-04-01T03:08:36;5.60;;;2.37;;
11439;SDS011;5776;51.814;4.510;2023-04-01T03:11:02;4.97;;;2.30;;
11439;SDS011;5776;51.814;4.510;2023-04-01T03:13:28;4.70;;;1.97;;
11439;SDS011;5776;51.814;4.510;2023-04-01T03:15:53;3.37;;;1.40;;
11439;SDS011;5776;51.814;4.510;2023-04-01T03:18:19;4.07;;;2.00;;
11439;SDS011;5776;51.814;4.510;2023-04-01T03:20:45;2.80;;;1.87;;
11439;SDS011;5776;51.814;4.510;2023-04-01T03:23:12;3.33;;;1.70;;
11439;SDS011;5776;51.814;4.510;2023-04-01T03:25:38;4.77;;;2.10;;
11439;SDS011;5776;51.814;4.510;2023-04-01T03:28:04;3.33;;;1.80;;
11439;SDS011;5776;51.814;4.510;2023-04-01T03:30:30;3.43;;;2.20;;
11439;SDS011;5776;51.814;4.510;2023-04-01T03:32:57;4.60;;;2.73;;
11439;SDS011;5776;51.814;4.510;2023-04-01T03:35:25;4.67;;;3.10;;
11439;SDS011;5776;51.814;4.510;2023-04-01T03:37:51;7.57;;;4.00;;
11439;SDS011;5776;51.814;4.510;2023-04-01T03:40:18;5.93;;;3.50;;
11439;SDS011;5776;51.814;4.510;2023-04-01T03:42:44;7.93;;;5.07;;
11439;SDS011;5776;51.814;4.510;2023-04-01T03:45:10;10.00;;;5.20;;
11439;SDS011;5776;51.814;4.510;2023-04-01T03:47:39;9.60;;;6.30;;
11439;SDS011;5776;51.814;4.510;2023-04-01T03:50:06;9.03;;;5.70;;
11439;SDS011;5776;51.814;4.510;2023-04-01T03:52:33;13.00;;;7.07;;
11439;SDS011;5776;51.814;4.510;2023-04-01T03:55:00;12.80;;;7.37;;
11439;SDS011;5776;51.814;4.510;2023-04-01T03:57:27;11.57;;;6.07;;
11439;SDS011;5776;51.814;4.510;2023-04-01T03:59:53;8.87;;;5.90;;
11439;SDS011;5776;51.814;4.510;2023-04-01T04:02:19;9.17;;;5.10;;
11439;SDS011;5776;51.814;4.510;2023-04-01T04:04:45;9.17;;;5.27;;
11439;SDS011;5776;51.814;4.510;2023-04-01T04:07:12;9.87;;;4.60;;
11439;SDS011;5776;51.814;4.510;2023-04-01T04:09:37;7.67;;;4.53;;
11439;SDS011;5776;51.814;4.510;2023-04-01T04:12:04;8.07;;;4.50;;
11439;SDS011;5776;51.814;4.510;2023-04-01T04:14:31;11.43;;;5.03;;
11439;SDS011;5776;51.814;4.510;2023-04-01T04:16:57;8.63;;;5.10;;
11439;SDS011;5776;51.814;4.510;2023-04-01T04:19:23;7.97;;;4.90;;
11439;SDS011;5776;51.814;4.510;2023-04-01T04:21:49;11.53;;;6.20;;
11439;SDS011;5776;51.814;4.510;2023-04-01T04:24:15;12.53;;;6.00;;
11439;SDS011;5776;51.814;4.510;2023-04-01T04:26:41;13.30;;;6.53;;
11439;SDS011;5776;51.814;4.510;2023-04-01T04:29:07;12.97;;;5.80;;
11439;SDS011;5776;51.814;4.510;2023-04-01T04:31:33;11.73;;;6.23;;
11439;SDS011;5776;51.814;4.510;2023-04-01T04:33:59;10.97;;;5.83;;
11439;SDS011;5776;51.814;4.510;2023-04-01T04:36:28;12.50;;;7.63;;
11439;SDS011;5776;51.814;4.510;2023-04-01T04:38:54;13.87;;;7.60;;
11439;SDS011;5776;51.814;4.510;2023-04-01T04:41:20;12.27;;;6.83;;
11439;SDS011;5776;51.814;4.510;2023-04-01T04:43:51;12.93;;;6.60;;
11439;SDS011;5776;51.814;4.510;2023-04-01T04:46:19;12.67;;;6.90;;
11439;SDS011;5776;51.814;4.510;2023-04-01T04:48:45;10.13;;;6.60;;
11439;SDS011;5776;51.814;4.510;2023-04-01T04:51:15;12.80;;;6.30;;
11439;SDS011;5776;51.814;4.510;2023-04-01T04:53:42;11.30;;;6.23;;
11439;SDS011;5776;51.814;4.510;2023-04-01T04:56:09;9.20;;;5.30;;
11439;SDS011;5776;51.814;4.510;2023-04-01T04:58:35;6.63;;;4.67;;
11439;SDS011;5776;51.814;4.510;2023-04-01T05:01:08;7.43;;;4.03;;
11439;SDS011;5776;51.814;4.510;2023-04-01T05:03:36;5.57;;;4.00;;
11439;SDS011;5776;51.814;4.510;2023-04-01T05:06:02;7.17;;;3.90;;
11439;SDS011;5776;51.814;4.510;2023-04-01T05:08:28;5.30;;;3.90;;
11439;SDS011;5776;51.814;4.510;2023-04-01T05:10:54;6.57;;;4.07;;
11439;SDS011;5776;51.814;4.510;2023-04-01T05:13:20;8.83;;;4.70;;
11439;SDS011;5776;51.814;4.510;2023-04-01T05:15:46;8.83;;;4.43;;
11439;SDS011;5776;51.814;4.510;2023-04-01T05:18:13;6.37;;;4.67;;
11439;SDS011;5776;51.814;4.510;2023-04-01T05:20:39;9.47;;;5.10;;
11439;SDS011;5776;51.814;4.510;2023-04-01T05:23:04;11.30;;;5.73;;
11439;SDS011;5776;51.814;4.510;2023-04-01T05:25:30;11.37;;;5.33;;
11439;SDS011;5776;51.814;4.510;2023-04-01T05:27:56;11.77;;;6.17;;
11439;SDS011;5776;51.814;4.510;2023-04-01T05:30:22;9.03;;;5.93;;
11439;SDS011;5776;51.814;4.510;2023-04-01T05:32:48;10.80;;;6.30;;
11439;SDS011;5776;51.814;4.510;2023-04-01T05:35:14;10.57;;;5.50;;
11439;SDS011;5776;51.814;4.510;2023-04-01T05:37:40;12.03;;;5.70;;
11439;SDS011;5776;51.814;4.510;2023-04-01T05:40:06;9.80;;;6.27;;
11439;SDS011;5776;51.814;4.510;2023-04-01T05:42:33;14.13;;;7.00;;
11439;SDS011;5776;51.814;4.510;2023-04-01T05:44:59;12.17;;;7.00;;
11439;SDS011;5776;51.814;4.510;2023-04-01T05:47:25;12.83;;;6.40;;
11439;SDS011;5776;51.814;4.510;2023-04-01T05:49:51;15.40;;;6.17;;
11439;SDS011;5776;51.814;4.510;2023-04-01T05:52:17;11.40;;;6.70;;
11439;SDS011;5776;51.814;4.510;2023-04-01T05:54:43;11.57;;;6.17;;
11439;SDS011;5776;51.814;4.510;2023-04-01T05:57:09;12.73;;;6.27;;
11439;SDS011;5776;51.814;4.510;2023-04-01T05:59:35;9.07;;;5.53;;
11439;SDS011;5776;51.814;4.510;2023-04-01T06:02:00;10.20;;;5.53;;
11439;SDS011;5776;51.814;4.510;2023-04-01T06:04:28;13.40;;;6.03;;
11439;SDS011;5776;51.814;4.510;2023-04-01T06:06:58;10.13;;;5.50;;
11439;SDS011;5776;51.814;4.510;2023-04-01T06:09:26;10.17;;;5.63;;
11439;SDS011;5776;51.814;4.510;2023-04-01T06:20:13;14.27;;;5.73;;
11439;SDS011;5776;51.814;4.510;2023-04-01T06:56:27;14.93;;;6.30;;
11439;SDS011;5776;51.814;4.510;2023-04-01T07:01:39;13.87;;;5.80;;
11439;SDS011;5776;51.814;4.510;2023-04-01T07:04:12;12.00;;;6.27;;
11439;SDS011;5776;51.814;4.510;2023-04-01T07:06:52;14.50;;;5.40;;
11439;SDS011;5776;51.814;4.510;2023-04-01T07:09:31;9.33;;;5.30;;
11439;SDS011;5776;51.814;4.510;2023-04-01T07:12:01;12.07;;;5.50;;
11439;SDS011;5776;51.814;4.510;2023-04-01T07:14:35;11.40;;;5.90;;
11439;SDS011;5776;51.814;4.510;2023-04-01T07:19:33;11.77;;;5.37;;
11439;SDS011;5776;51.814;4.510;2023-04-01T07:24:52;9.50;;;5.27;;
11439;SDS011;5776;51.814;4.510;2023-04-01T07:27:19;11.07;;;6.43;;
11439;SDS011;5776;51.814;4.510;2023-04-01T07:29:45;11.03;;;5.73;;
11439;SDS011;5776;51.814;4.510;2023-04-01T07:40:37;7.17;;;3.57;;
11439;SDS011;5776;51.814;4.510;2023-04-01T07:48:45;5.50;;;3.10;;
11439;SDS011;5776;51.814;4.510;2023-04-01T07:56:51;4.43;;;2.40;;
11439;SDS011;5776;51.814;4.510;2023-04-01T08:02:41;3.40;;;1.80;;
11439;SDS011;5776;51.814;4.510;2023-04-01T08:05:15;1.77;;;1.50;;
11439;SDS011;5776;51.814;4.510;2023-04-01T08:07:45;2.77;;;1.60;;
11439;SDS011;5776;51.814;4.510;2023-04-01T08:12:56;3.17;;;1.83;;
11439;SDS011;5776;51.814;4.510;2023-04-01T08:23:51;3.23;;;1.60;;
11439;SDS011;5776;51.814;4.510;2023-04-01T08:26:31;3.10;;;2.00;;
11439;SDS011;5776;51.814;4.510;2023-04-01T08:29:21;2.10;;;1.90;;
11439;SDS011;5776;51.814;4.510;2023-04-01T08:31:55;2.77;;;1.80;;
11439;SDS011;5776;51.814;4.510;2023-04-01T08:34:31;2.67;;;2.17;;
11439;SDS011;5776;51.814;4.510;2023-04-01T08:37:10;2.80;;;2.53;;
11439;SDS011;5776;51.814;4.510;2023-04-01T08:39:58;3.80;;;2.37;;
11439;SDS011;5776;51.814;4.510;2023-04-01T08:48:48;4.07;;;2.97;;
11439;SDS011;5776;51.814;4.510;2023-04-01T08:52:12;3.70;;;2.57;;
11439;SDS011;5776;51.814;4.510;2023-04-01T08:57:14;5.43;;;3.60;;
11439;SDS011;5776;51.814;4.510;2023-04-01T09:03:08;7.70;;;4.07;;
11439;SDS011;5776;51.814;4.510;2023-04-01T09:20:43;12.07;;;4.33;;
11439;SDS011;5776;51.814;4.510;2023-04-01T09:23:25;8.47;;;5.17;;
11439;SDS011;5776;51.814;4.510;2023-04-01T09:29:30;8.40;;;4.53;;
11439;SDS011;5776;51.814;4.510;2023-04-01T09:32:12;7.07;;;4.03;;
11439;SDS011;5776;51.814;4.510;2023-04-01T09:40:02;11.97;;;5.57;;
11439;SDS011;5776;51.814;4.510;2023-04-01T09:57:33;11.03;;;6.23;;
11439;SDS011;5776;51.814;4.510;2023-04-01T10:12:28;9.90;;;5.27;;
11439;SDS011;5776;51.814;4.510;2023-04-01T10:18:33;11.17;;;5.07;;
11439;SDS011;5776;51.814;4.510;2023-04-01T10:21:25;11.97;;;5.13;;
11439;SDS011;5776;51.814;4.510;2023-04-01T11:00:55;14.57;;;6.03;;
11439;SDS011;5776;51.814;4.510;2023-04-01T11:09:51;7.73;;;5.03;;
11439;SDS011;5776;51.814;4.510;2023-04-01T11:15:26;7.67;;;4.37;;
11439;SDS011;5776;51.814;4.510;2023-04-01T11:30:07;10.97;;;5.27;;
11439;SDS011;5776;51.814;4.510;2023-04-01T11:32:54;8.27;;;5.20;;
11439;SDS011;5776;51.814;4.510;2023-04-01T11:38:49;8.60;;;5.37;;
11439;SDS011;5776;51.814;4.510;2023-04-01T11:44:26;8.10;;;4.93;;
11439;SDS011;5776;51.814;4.510;2023-04-01T11:47:09;9.17;;;6.00;;
11439;SDS011;5776;51.814;4.510;2023-04-01T11:58:09;10.97;;;6.10;;
11439;SDS011;5776;51.814;4.510;2023-04-01T12:00:54;10.83;;;5.40;;
11439;SDS011;5776;51.814;4.510;2023-04-01T12:06:02;11.03;;;5.73;;
11439;SDS011;5776;51.814;4.510;2023-04-01T12:08:40;10.23;;;6.37;;
11439;SDS011;5776;51.814;4.510;2023-04-01T12:13:53;12.10;;;4.57;;
11439;SDS011;5776;51.814;4.510;2023-04-01T12:41:46;11.53;;;5.93;;
11439;SDS011;5776;51.814;4.510;2023-04-01T12:52:42;8.37;;;4.53;;
11439;SDS011;5776;51.814;4.510;2023-04-01T13:14:48;5.77;;;4.03;;
11439;SDS011;5776;51.814;4.510;2023-04-01T13:26:00;6.97;;;4.50;;
11439;SDS011;5776;51.814;4.510;2023-04-01T13:28:30;8.63;;;4.70;;
11439;SDS011;5776;51.814;4.510;2023-04-01T13:37:41;7.70;;;4.40;;
11439;SDS011;5776;51.814;4.510;2023-04-01T13:40:14;8.87;;;4.90;;
11439;SDS011;5776;51.814;4.510;2023-04-01T13:42:57;9.40;;;4.70;;
11439;SDS011;5776;51.814;4.510;2023-04-01T13:56:12;10.50;;;5.10;;
11439;SDS011;5776;51.814;4.510;2023-04-01T14:05:15;9.67;;;6.03;;
11439;SDS011;5776;51.814;4.510;2023-04-01T14:21:07;12.13;;;5.57;;
11439;SDS011;5776;51.814;4.510;2023-04-01T14:23:57;10.37;;;5.57;;
11439;SDS011;5776;51.814;4.510;2023-04-01T14:29:43;15.63;;;5.30;;
11439;SDS011;5776;51.814;4.510;2023-04-01T14:32:22;9.20;;;4.40;;
11439;SDS011;5776;51.814;4.510;2023-04-01T14:46:06;10.20;;;4.87;;
11439;SDS011;5776;51.814;4.510;2023-04-01T14:48:36;10.10;;;4.33;;
11439;SDS011;5776;51.814;4.510;2023-04-01T14:51:14;8.17;;;4.13;;
11439;SDS011;5776;51.814;4.510;2023-04-01T14:53:49;12.43;;;4.20;;
11439;SDS011;5776;51.814;4.510;2023-04-01T15:07:34;9.43;;;4.50;;
11439;SDS011;5776;51.814;4.510;2023-04-01T15:19:23;7.60;;;3.53;;
11439;SDS011;5776;51.814;4.510;2023-04-01T15:22:18;7.80;;;4.10;;
11439;SDS011;5776;51.814;4.510;2023-04-01T15:38:44;12.67;;;5.13;;
11439;SDS011;5776;51.814;4.510;2023-04-01T15:53:02;15.50;;;5.50;;
11439;SDS011;5776;51.814;4.510;2023-04-01T15:56:06;9.60;;;4.77;;
11439;SDS011;5776;51.814;4.510;2023-04-01T16:15:08;10.73;;;5.70;;
11439;SDS011;5776;51.814;4.510;2023-04-01T16:28:31;6.07;;;3.60;;
11439;SDS011;5776;51.814;4.510;2023-04-01T16:31:06;9.90;;;3.77;;
11439;SDS011;5776;51.814;4.510;2023-04-01T16:36:45;8.13;;;3.70;;
11439;SDS011;5776;51.814;4.510;2023-04-01T16:39:52;11.63;;;5.80;;
11439;SDS011;5776;51.814;4.510;2023-04-01T16:46:06;7.73;;;4.20;;
11439;SDS011;5776;51.814;4.510;2023-04-01T16:48:22;8.33;;;4.63;;
11439;SDS011;5776;51.814;4.510;2023-04-01T16:51:13;7.43;;;4.70;;
11439;SDS011;5776;51.814;4.510;2023-04-01T16:53:43;6.67;;;4.43;;
11439;SDS011;5776;51.814;4.510;2023-04-01T16:56:17;13.20;;;8.00;;
11439;SDS011;5776;51.814;4.510;2023-04-01T16:58:57;7.13;;;5.10;;
11439;SDS011;5776;51.814;4.510;2023-04-01T17:09:53;5.03;;;4.53;;
11439;SDS011;5776;51.814;4.510;2023-04-01T17:12:40;6.37;;;4.07;;
11439;SDS011;5776;51.814;4.510;2023-04-01T17:18:14;5.67;;;4.47;;
11439;SDS011;5776;51.814;4.510;2023-04-01T17:21:00;4.80;;;3.73;;
11439;SDS011;5776;51.814;4.510;2023-04-01T17:23:34;4.37;;;3.70;;
11439;SDS011;5776;51.814;4.510;2023-04-01T17:28:44;6.57;;;3.47;;
11439;SDS011;5776;51.814;4.510;2023-04-01T17:36:57;4.40;;;3.50;;
11439;SDS011;5776;51.814;4.510;2023-04-01T17:39:49;6.93;;;3.30;;
11439;SDS011;5776;51.814;4.510;2023-04-01T17:42:51;5.20;;;3.40;;
11439;SDS011;5776;51.814;4.510;2023-04-01T17:51:03;5.40;;;4.50;;
11439;SDS011;5776;51.814;4.510;2023-04-01T17:59:31;6.00;;;4.43;;
11439;SDS011;5776;51.814;4.510;2023-04-01T18:21:52;4.10;;;2.87;;
11439;SDS011;5776;51.814;4.510;2023-04-01T18:24:33;5.10;;;3.70;;
11439;SDS011;5776;51.814;4.510;2023-04-01T18:29:45;3.10;;;2.70;;
11439;SDS011;5776;51.814;4.510;2023-04-01T18:38:00;2.53;;;2.33;;
11439;SDS011;5776;51.814;4.510;2023-04-01T18:40:38;3.90;;;2.33;;
11439;SDS011;5776;51.814;4.510;2023-04-01T18:43:32;2.63;;;2.00;;
11439;SDS011;5776;51.814;4.510;2023-04-01T18:46:07;2.77;;;1.93;;
11439;SDS011;5776;51.814;4.510;2023-04-01T18:51:50;2.23;;;1.60;;
11439;SDS011;5776;51.814;4.510;2023-04-01T18:54:42;1.83;;;1.40;;
11439;SDS011;5776;51.814;4.510;2023-04-01T18:57:15;1.80;;;1.60;;
11439;SDS011;5776;51.814;4.510;2023-04-01T18:59:43;2.13;;;1.50;;
11439;SDS011;5776;51.814;4.510;2023-04-01T19:02:31;3.63;;;2.10;;
11439;SDS011;5776;51.814;4.510;2023-04-01T19:05:19;2.37;;;1.70;;
11439;SDS011;5776;51.814;4.510;2023-04-01T19:10:20;2.17;;;1.93;;
11439;SDS011;5776;51.814;4.510;2023-04-01T19:18:55;2.30;;;1.90;;
11439;SDS011;5776;51.814;4.510;2023-04-01T19:21:42;1.90;;;1.63;;
11439;SDS011;5776;51.814;4.510;2023-04-01T19:29:58;3.13;;;2.60;;
11439;SDS011;5776;51.814;4.510;2023-04-01T19:37:51;3.80;;;2.80;;
11439;SDS011;5776;51.814;4.510;2023-04-01T19:48:51;4.87;;;3.30;;
11439;SDS011;5776;51.814;4.510;2023-04-01T19:56:45;3.43;;;2.60;;
11439;SDS011;5776;51.814;4.510;2023-04-01T20:07:27;2.80;;;2.20;;
11439;SDS011;5776;51.814;4.510;2023-04-01T20:10:04;2.87;;;2.57;;
11439;SDS011;5776;51.814;4.510;2023-04-01T20:15:33;3.50;;;2.90;;
11439;SDS011;5776;51.814;4.510;2023-04-01T20:18:25;3.97;;;2.80;;
11439;SDS011;5776;51.814;4.510;2023-04-01T20:21:19;4.47;;;2.20;;
11439;SDS011;5776;51.814;4.510;2023-04-01T20:23:53;3.03;;;2.50;;
11439;SDS011;5776;51.814;4.510;2023-04-01T20:26:40;4.00;;;3.00;;
11439;SDS011;5776;51.814;4.510;2023-04-01T20:34:48;3.53;;;2.67;;
11439;SDS011;5776;51.814;4.510;2023-04-01T20:37:57;3.33;;;2.60;;
11439;SDS011;5776;51.814;4.510;2023-04-01T20:40:29;3.43;;;3.07;;
11439;SDS011;5776;51.814;4.510;2023-04-01T20:46:20;4.10;;;3.30;;
11439;SDS011;5776;51.814;4.510;2023-04-01T20:48:58;4.00;;;3.00;;
11439;SDS011;5776;51.814;4.510;2023-04-01T21:14:07;3.30;;;2.60;;
11439;SDS011;5776;51.814;4.510;2023-04-01T21:33:59;4.60;;;4.00;;
11439;SDS011;5776;51.814;4.510;2023-04-01T21:37:31;5.27;;;4.00;;
11439;SDS011;5776;51.814;4.510;2023-04-01T21:54:02;6.70;;;3.50;;
11439;SDS011;5776;51.814;4.510;2023-04-01T22:00:00;5.13;;;4.10;;
11439;SDS011;5776;51.814;4.510;2023-04-01T22:08:04;5.23;;;4.33;;
11439;SDS011;5776;51.814;4.510;2023-04-01T22:16:33;4.40;;;3.50;;
11439;SDS011;5776;51.814;4.510;2023-04-01T22:19:16;5.00;;;3.50;;
11439;SDS011;5776;51.814;4.510;2023-04-01T22:22:17;3.73;;;3.27;;
11439;SDS011;5776;51.814;4.510;2023-04-01T22:32:58;4.07;;;3.23;;
11439;SDS011;5776;51.814;4.510;2023-04-01T22:41:02;4.40;;;3.10;;
11439;SDS011;5776;51.814;4.510;2023-04-01T22:43:35;3.87;;;3.23;;
11439;SDS011;5776;51.814;4.510;2023-04-01T22:49:22;3.43;;;3.13;;
11439;SDS011;5776;51.814;4.510;2023-04-01T22:55:04;5.67;;;4.13;;
11439;SDS011;5776;51.814;4.510;2023-04-01T22:57:37;6.20;;;4.07;;
11439;SDS011;5776;51.814;4.510;2023-04-01T23:00:30;4.90;;;4.07;;
11439;SDS011;5776;51.814;4.510;2023-04-01T23:05:36;4.30;;;3.33;;
11439;SDS011;5776;51.814;4.510;2023-04-01T23:11:15;5.63;;;4.00;;
11439;SDS011;5776;51.814;4.510;2023-04-01T23:13:47;6.63;;;3.47;;
11439;SDS011;5776;51.814;4.510;2023-04-01T23:16:39;4.73;;;3.67;;
11439;SDS011;5776;51.814;4.510;2023-04-01T23:19:17;4.10;;;3.57;;
11439;SDS011;5776;51.814;4.510;2023-04-01T23:21:51;4.77;;;4.00;;
11439;SDS011;5776;51.814;4.510;2023-04-01T23:24:29;5.37;;;3.80;;
11439;SDS011;5776;51.814;4.510;2023-04-01T23:27:03;5.43;;;4.60;;
11439;SDS011;5776;51.814;4.510;2023-04-01T23:29:36;4.43;;;3.23;;
11439;SDS011;5776;51.814;4.510;2023-04-01T23:32:05;5.23;;;4.20;;
11439;SDS011;5776;51.814;4.510;2023-04-01T23:34:45;5.10;;;3.63;;
11439;SDS011;5776;51.814;4.510;2023-04-01T23:37:15;7.37;;;4.67;;
11439;SDS011;5776;51.814;4.510;2023-04-01T23:39:54;5.30;;;4.03;;
11439;SDS011;5776;51.814;4.510;2023-04-01T23:42:29;7.93;;;4.60;;
11439;SDS011;5776;51.814;4.510;2023-04-01T23:44:58;5.93;;;4.67;;
11439;SDS011;5776;51.814;4.510;2023-04-01T23:47:37;6.93;;;4.53;;
11439;SDS011;5776;51.814;4.510;2023-04-01T23:50:12;5.07;;;4.07;;
11439;SDS011;5776;51.814;4.510;2023-04-01T23:53:02;12.87;;;4.53;;
11439;SDS011;5776;51.814;4.510;2023-04-01T23:55:33;7.43;;;3.97;;
